Kremmling, CO (80459)

9:02 PM MDT on April 25, 2015 (GMT -0600)
Kremmling | | Change Station
CLOSE
Current Station
Airport
Location: Kremmling,
Elevation: 7411 ft
Nearby Weather Stations

Elev 7411 ft 40.05 °N, 106.37 °W | Updated 7 minutes ago

Light Rain
Light Rain
41 °F
Feels Like 36 °F
N
7
Wind Variable Wind from South

Today
High -- | Low -- °F
--% Chance of Precip.
Yesterday
High -- | Low -- °F
Precip. -- in
6:13 AM 7:54 PM
Waxing Crescent, 51% visible
Pressure 29.87 in
Visibility 10.0 miles
Clouds Scattered Clouds 2400 ft
Mostly Cloudy 2900 ft
Overcast 6000 ft
Windchill 36 °F
Dew Point 36 °F
Humidity 81%
Rainfall 0.02 in
Snow Depth Not available.
UV 0 out of 12
Pollen 10.50 out of 12
Air Quality Not available.
Flu Activity Sporadic
METAR K20V 260255Z AUTO 19006KT 10SM -RA SCT024 BKN029 OVC060 05/02 A2987 RMK AO2 P0002

More Conditions Fewer Conditions

Pressure 29.87 in
Visibility 10.0 miles
Clouds Scattered Clouds 2400 ft
Mostly Cloudy 2900 ft
Overcast 6000 ft
Windchill 36 °F
Dew Point 36 °F
Humidity 81%
Rainfall 0.02 in
Snow Depth Not available.
UV 0 out of 12
Pollen 10.50 out of 12
Air Quality Not available.
Flu Activity Sporadic
METAR K20V 260255Z AUTO 19006KT 10SM -RA SCT024 BKN029 OVC060 05/02 A2987 RMK AO2 P0002

More Conditions Fewer Conditions

Nowcast | as of 7:03 PM MDT on April 25, 2015

Scattered rain and snow showers will move across north central Colorado this evening. Through 10 PM the showers will be most numerous across grand...western Boulder...Clear Creek... Gilpin...and Northeast Park counties. The snow level will be between 8 and 9 thousand feet...with some higher elevations picking up an inch or two of snow. Wind gusts to 40 mph and an isolated thunderstorm are also possible.

×

10-Day Weather Forecast

Almanac

Astronomy

Apr. 25, 2015 Rise Set
Actual Time
Civil Twilight
Nautical Twilight
Astronomical Twilight
Moon
Length of Visible Light
Length of Day
Tomorrow will be .
, % of the Moon is Illuminated

Today's Extremes

State Highs State Lows

Community

WunderPhotos

Upload Photos

1,816,916 photos uploaded!

WunderBlogs® & News

Nearby

Air Quality

  Air Quality AQ Index Pollutant
Not available.

Snow Depth

Station Depth Elevation

Earthquake Activity

City Distance Mag. Time & Date
Minimum magnitude displayed is 2.5.

Coastal Water Temperatures

Place Temperature

Stations

Nearby Weather Stations

Station Location Temp. Windchill Dew Point Humidity Wind Precip. Elev Updated Type